Axtell, Nebraska
Current Conditions -  °F | °C
As of 7:15 AM on Sunday 23 Nov 2014 (Local Time) from KHDE Reporting Station
Overcast Overcast  
Wind Chill: 35°   Ceiling: 10000
Heat Index: 44°   Visibility: 10mi
Dew Point: 33°   Wind: 22mph
Humidity: 66%   Direction: 340°NNW
Pressure: 29.53"   Gusts: 29mph
Location:  40.48°N, 99.13°W
Report Text: KHDE 231315Z AUTO 34019G25KT 10SM OVC100 07/01 A2953 RMK AO2 T00660007
Loading
Personal Weather Stations






























Interactive Weather Map New forecast layout! Learn more

10-Day Weather Forecast

Advertisements
Track Severe Weather on mobile